Time;durP1;ratioP1;P1;durP2;ratioP2;P2;SDS_P1;SDS_P2;PMS_P1;PMS_P2;Temp;Humidity;BMP_temperature;BMP_pressure;BME280_temperature;BME280_humidity;BME280_pressure;Samples;Min_cycle;Max_cycle;Signal;HPM_P1;HPM_P2
2021/01/08 00:00:22;;;;;;;14.02;6.80;;;5.70;71.10;;;;;;2330966;53;20944;-70
2021/01/08 00:02:48;;;;;;;12.65;6.62;;;5.70;71.10;;;;;;2336886;54;20945;-71
2021/01/08 00:05:15;;;;;;;13.57;6.75;;;5.70;71.00;;;;;;2556799;53;1326852;-70
2021/01/08 00:07:41;;;;;;;11.68;6.03;;;5.70;71.00;;;;;;2334970;53;20937;-71
2021/01/08 00:10:08;;;;;;;14.45;6.78;;;5.70;70.90;;;;;;2340836;53;20948;-70
2021/01/08 00:12:35;;;;;;;13.27;6.40;;;5.70;70.90;;;;;;2335766;53;20948;-70
2021/01/08 00:15:03;;;;;;;13.23;6.40;;;5.60;71.40;;;;;;2336011;54;21043;-71
2021/01/08 00:17:29;;;;;;;15.10;6.80;;;5.60;70.70;;;;;;2336639;54;20936;-71
2021/01/08 00:19:56;;;;;;;13.77;7.18;;;5.60;70.70;;;;;;2336826;54;20952;-71
2021/01/08 00:22:23;;;;;;;15.15;6.35;;;5.60;70.80;;;;;;2581715;53;20971;-71
2021/01/08 00:24:50;;;;;;;17.30;7.78;;;5.70;70.90;;;;;;2580581;53;20947;-71
2021/01/08 00:27:19;;;;;;;13.82;7.28;;;5.60;70.80;;;;;;2339568;53;20972;-70
2021/01/08 00:29:45;;;;;;;14.77;6.62;;;5.60;70.80;;;;;;2340799;54;21016;-71
2021/01/08 00:32:13;;;;;;;14.93;7.07;;;5.60;70.80;;;;;;2336020;53;21032;-71
2021/01/08 00:34:40;;;;;;;16.60;7.57;;;5.60;70.80;;;;;;2581152;53;20989;-70
2021/01/08 00:37:06;;;;;;;14.77;7.00;;;5.60;70.90;;;;;;2339941;53;21775;-70
2021/01/08 00:39:32;;;;;;;17.83;8.40;;;5.60;70.90;;;;;;2336659;53;21496;-71
2021/01/08 00:42:00;;;;;;;40.90;18.70;;;5.60;71.00;;;;;;2581752;53;23949;-71
2021/01/08 00:44:26;;;;;;;29.00;14.02;;;5.60;71.00;;;;;;2319210;53;20952;-71
2021/01/08 00:46:53;;;;;;;26.87;12.60;;;5.60;71.00;;;;;;2335803;53;20994;-71
2021/01/08 00:49:20;;;;;;;24.50;12.10;;;5.60;71.00;;;;;;2340147;53;21106;-70
2021/01/08 00:51:46;;;;;;;21.95;10.32;;;5.60;71.00;;;;;;2335771;53;20948;-70
2021/01/08 00:54:12;;;;;;;20.30;9.20;;;5.60;71.00;;;;;;2580990;53;20925;-70
2021/01/08 00:56:39;;;;;;;17.60;8.00;;;5.60;71.00;;;;;;2321763;53;21090;-71
2021/01/08 00:59:05;;;;;;;16.45;7.68;;;5.60;70.90;;;;;;2334829;53;20953;-70
2021/01/08 01:01:33;;;;;;;16.40;8.00;;;5.60;70.90;;;;;;2531741;53;20970;-71
2021/01/08 01:04:00;;;;;;;18.85;9.00;;;5.60;70.80;;;;;;2572848;52;20948;-71
2021/01/08 01:06:32;;;;;;;15.93;7.90;;;5.60;70.70;;;;;;2339613;53;20977;-71
2021/01/08 01:08:58;;;;;;;18.02;8.50;;;5.60;70.70;;;;;;2336260;53;21008;-71
2021/01/08 01:14:50;;;;;;;23.55;11.15;;;5.60;70.70;;;;;;2338860;53;20957;-71
2021/01/08 01:17:16;;;;;;;22.52;9.73;;;5.60;70.70;;;;;;2335677;54;21000;-70
2021/01/08 01:19:43;;;;;;;18.58;8.82;;;5.60;70.70;;;;;;2340079;53;20985;-69
2021/01/08 01:22:09;;;;;;;16.70;8.65;;;5.60;70.70;;;;;;2581550;53;21041;-71
2021/01/08 01:28:03;;;;;;;23.10;10.85;;;5.60;70.50;;;;;;2580949;53;20980;-70
2021/01/08 01:30:31;;;;;;;16.65;9.45;;;5.50;70.50;;;;;;2335832;54;21016;-70
2021/01/08 01:33:00;;;;;;;20.27;10.07;;;5.50;70.50;;;;;;2339744;53;21606;-71
2021/01/08 01:35:26;;;;;;;24.20;11.50;;;5.50;70.50;;;;;;2339241;53;20977;-71
2021/01/08 01:37:53;;;;;;;20.33;9.65;;;5.50;70.50;;;;;;2333318;53;21225;-71
2021/01/08 01:40:20;;;;;;;16.50;8.55;;;5.50;70.60;;;;;;2336201;54;21373;-71
2021/01/08 01:42:46;;;;;;;16.12;8.60;;;5.50;70.70;;;;;;2576807;53;21244;-70
2021/01/08 01:45:13;;;;;;;17.52;8.45;;;5.50;70.70;;;;;;2581688;53;20909;-71
2021/01/08 01:47:40;;;;;;;14.90;8.13;;;5.50;70.70;;;;;;2552593;53;21683;-71
2021/01/08 01:50:08;;;;;;;17.15;8.43;;;5.50;70.70;;;;;;2580582;53;22109;-70
2021/01/08 01:52:35;;;;;;;15.52;7.82;;;5.50;70.80;;;;;;2581442;53;21411;-71
2021/01/08 01:55:04;;;;;;;18.45;8.65;;;5.50;70.80;;;;;;2334249;53;21013;-71
2021/01/08 01:57:30;;;;;;;17.73;8.80;;;5.50;70.80;;;;;;2335575;54;20995;-70
2021/01/08 01:59:57;;;;;;;19.77;8.93;;;5.50;70.80;;;;;;2337777;53;20949;-71
2021/01/08 02:02:42;;;;;;;20.52;9.63;;;5.50;70.80;;;;;;2582086;53;20962;-70
2021/01/08 02:05:09;;;;;;;18.48;8.20;;;5.50;70.80;;;;;;2332489;53;20937;-70
2021/01/08 02:07:37;;;;;;;15.45;7.95;;;5.50;70.80;;;;;;2336044;53;20976;-70
2021/01/08 02:10:05;;;;;;;14.73;7.30;;;5.50;70.70;;;;;;2581951;53;20953;-71
2021/01/08 02:12:31;;;;;;;15.77;8.07;;;5.50;70.70;;;;;;2340145;53;21868;-70
2021/01/08 02:14:58;;;;;;;15.27;7.45;;;5.40;70.60;;;;;;2327639;53;20990;-71
2021/01/08 02:17:40;;;;;;;14.05;6.87;;;5.50;70.70;;;;;;2334962;53;20924;-72
2021/01/08 02:20:06;;;;;;;16.07;7.43;;;5.40;70.40;;;;;;2581503;53;21938;-70
2021/01/08 02:22:45;;;;;;;16.27;7.25;;;5.40;70.50;;;;;;2565776;52;20996;-70
2021/01/08 02:25:25;;;;;;;16.05;6.90;;;5.40;70.50;;;;;;2338017;53;20993;-70
2021/01/08 02:29:44;;;;;;;14.27;7.35;;;5.40;70.50;;;;;;2333870;53;20936;-69
2021/01/08 02:32:10;;;;;;;21.02;8.23;;;5.40;70.10;;;;;;2578984;53;20996;-71
2021/01/08 02:34:38;;;;;;;16.08;7.10;;;5.40;70.50;;;;;;2337738;53;21084;-70
2021/01/08 02:37:06;;;;;;;16.25;8.05;;;5.40;70.50;;;;;;2578768;53;20972;-71
2021/01/08 02:39:32;;;;;;;15.73;7.40;;;5.40;70.50;;;;;;2324990;53;20943;-72
2021/01/08 02:41:59;;;;;;;15.00;7.30;;;5.30;70.50;;;;;;2575071;52;20976;-71
2021/01/08 02:44:25;;;;;;;15.85;7.62;;;5.30;70.50;;;;;;2333481;53;20928;-71
2021/01/08 02:46:55;;;;;;;12.93;6.70;;;5.30;70.50;;;;;;2338308;53;21056;-71
2021/01/08 02:49:21;;;;;;;14.00;7.40;;;5.30;70.50;;;;;;2578698;53;20948;-72
2021/01/08 02:51:48;;;;;;;15.00;6.53;;;5.30;70.40;;;;;;2581061;53;20944;-72
2021/01/08 02:54:15;;;;;;;11.63;6.18;;;5.30;70.40;;;;;;2581492;53;21040;-72
2021/01/08 02:56:46;;;;;;;13.00;6.72;;;5.30;70.50;;;;;;2581136;53;20973;-71
2021/01/08 02:59:12;;;;;;;12.82;6.53;;;5.30;70.40;;;;;;2578785;53;21004;-72
2021/01/08 03:01:39;;;;;;;11.55;6.12;;;5.30;70.40;;;;;;2578909;53;21445;-72
2021/01/08 03:04:05;;;;;;;12.98;6.35;;;5.30;70.40;;;;;;2579039;53;20971;-72
2021/01/08 03:06:32;;;;;;;12.15;5.28;;;5.20;70.30;;;;;;2578256;53;21696;-72
2021/01/08 03:08:59;;;;;;;12.68;6.20;;;5.20;70.40;;;;;;2337048;53;21535;-71
2021/01/08 03:11:26;;;;;;;12.52;6.30;;;5.20;70.40;;;;;;2579553;53;21101;-72
2021/01/08 03:13:53;;;;;;;13.62;6.30;;;5.20;70.30;;;;;;2339410;53;20969;-71
2021/01/08 03:16:19;;;;;;;11.40;5.80;;;5.20;70.40;;;;;;2318320;54;21477;-72
2021/01/08 03:18:46;;;;;;;11.27;5.43;;;5.20;70.40;;;;;;2578339;53;21600;-71
2021/01/08 03:21:12;;;;;;;11.90;5.95;;;5.20;70.40;;;;;;2333074;53;21067;-72
2021/01/08 03:23:39;;;;;;;11.63;5.75;;;5.20;70.50;;;;;;2334591;54;20936;-72
2021/01/08 03:26:05;;;;;;;11.25;5.87;;;5.20;70.50;;;;;;2338510;53;21492;-71
2021/01/08 03:28:31;;;;;;;11.12;5.87;;;5.20;70.50;;;;;;2579181;53;20988;-71
2021/01/08 03:30:58;;;;;;;11.43;5.43;;;5.20;70.50;;;;;;2582470;53;20912;-72
2021/01/08 03:33:24;;;;;;;9.10;5.07;;;5.20;71.20;;;;;;2336497;53;22046;-72
2021/01/08 03:35:50;;;;;;;14.38;6.57;;;5.20;70.50;;;;;;2582401;53;21695;-72
2021/01/08 03:38:18;;;;;;;11.05;6.05;;;5.20;70.40;;;;;;2336820;54;21028;-71
2021/01/08 03:40:46;;;;;;;10.38;5.50;;;5.20;70.40;;;;;;2582576;53;20977;-72
2021/01/08 03:43:12;;;;;;;10.73;5.43;;;5.20;70.40;;;;;;2337322;54;20932;-72
2021/01/08 03:45:39;;;;;;;11.90;5.30;;;5.10;70.30;;;;;;2581927;53;20992;-71
2021/01/08 03:48:06;;;;;;;10.93;5.50;;;5.20;70.50;;;;;;2340857;53;21020;-72
2021/01/08 03:50:34;;;;;;;10.68;5.28;;;5.20;70.50;;;;;;2570144;52;20992;-72
2021/01/08 03:53:00;;;;;;;10.93;5.37;;;5.10;70.30;;;;;;2336230;54;20960;-72
2021/01/08 03:55:33;;;;;;;10.40;4.72;;;5.10;70.30;;;;;;2581100;53;20966;-72
2021/01/08 03:58:00;;;;;;;9.85;4.53;;;5.10;70.30;;;;;;2554380;53;20972;-72
2021/01/08 04:00:51;;;;;;;10.65;5.57;;;5.10;70.40;;;;;;2330352;53;21038;-72
2021/01/08 04:03:18;;;;;;;12.15;5.47;;;5.10;70.20;;;;;;2331304;53;21732;-72
2021/01/08 04:05:44;;;;;;;10.75;5.15;;;5.10;70.40;;;;;;2578936;53;20944;-71
2021/01/08 04:08:10;;;;;;;15.07;7.82;;;5.10;70.30;;;;;;2334603;54;20963;-72
2021/01/08 04:10:37;;;;;;;12.73;7.07;;;5.10;70.30;;;;;;2335829;53;21004;-72
2021/01/08 04:13:04;;;;;;;17.27;8.27;;;5.10;70.30;;;;;;2576364;53;21882;-72
2021/01/08 04:15:30;;;;;;;15.85;7.60;;;5.10;70.30;;;;;;2331794;54;21436;-72
2021/01/08 04:17:56;;;;;;;14.07;7.57;;;5.10;70.40;;;;;;2331581;54;20980;-71
2021/01/08 04:20:23;;;;;;;13.25;6.70;;;5.00;70.40;;;;;;2576735;53;20933;-72
2021/01/08 04:22:50;;;;;;;13.20;6.80;;;5.00;70.50;;;;;;2576727;53;21037;-71
2021/01/08 04:25:16;;;;;;;14.10;7.20;;;5.10;70.70;;;;;;2331917;54;21008;-71
2021/01/08 04:27:42;;;;;;;14.32;7.07;;;5.00;70.60;;;;;;2576627;53;20960;-72
2021/01/08 04:30:09;;;;;;;15.75;7.35;;;5.10;70.70;;;;;;2334795;53;20937;-71
2021/01/08 04:32:36;;;;;;;15.82;8.07;;;5.10;70.80;;;;;;2578123;52;21445;-72
2021/01/08 04:35:03;;;;;;;15.73;8.13;;;5.10;70.80;;;;;;2327679;53;20920;-72
2021/01/08 04:37:29;;;;;;;13.68;7.10;;;5.10;70.90;;;;;;2337267;53;21465;-71
2021/01/08 04:39:56;;;;;;;12.77;6.32;;;5.10;70.90;;;;;;2577276;53;20988;-71
2021/01/08 04:42:22;;;;;;;12.20;6.28;;;5.10;70.90;;;;;;2337368;54;20950;-71
2021/01/08 04:44:49;;;;;;;12.37;6.45;;;5.10;70.90;;;;;;2571711;52;21050;-72
2021/01/08 04:47:16;;;;;;;13.40;6.12;;;5.10;70.90;;;;;;2334214;54;21485;-71
2021/01/08 04:49:42;;;;;;;12.90;6.50;;;5.10;70.90;;;;;;2578543;52;21576;-71
2021/01/08 04:52:10;;;;;;;12.55;6.97;;;5.10;70.90;;;;;;2332972;53;21389;-71
2021/01/08 04:54:36;;;;;;;13.10;6.70;;;5.10;70.90;;;;;;2572298;52;21045;-71
2021/01/08 04:57:05;;;;;;;15.38;6.87;;;5.10;70.80;;;;;;2335834;53;21552;-71
2021/01/08 04:59:31;;;;;;;12.68;6.22;;;5.10;70.70;;;;;;2578423;53;21040;-71
2021/01/08 05:01:58;;;;;;;11.98;6.30;;;5.10;70.50;;;;;;2334239;54;20964;-72
2021/01/08 05:04:24;;;;;;;13.00;6.78;;;5.10;70.50;;;;;;2578857;53;21529;-71
2021/01/08 05:06:52;;;;;;;13.13;6.18;;;5.10;70.30;;;;;;2334345;54;20944;-72
2021/01/08 05:09:18;;;;;;;12.30;6.35;;;5.10;70.30;;;;;;2339449;53;21246;-71
2021/01/08 05:11:45;;;;;;;14.35;7.55;;;5.10;70.20;;;;;;2581459;53;20976;-71
2021/01/08 05:14:13;;;;;;;12.13;6.40;;;5.10;70.20;;;;;;2580920;53;21016;-71
2021/01/08 05:16:40;;;;;;;13.43;6.60;;;5.10;70.20;;;;;;2580875;53;20972;-71
2021/01/08 05:19:08;;;;;;;12.52;6.32;;;5.10;70.30;;;;;;2581682;53;20964;-72
2021/01/08 05:21:35;;;;;;;14.38;7.05;;;5.00;70.30;;;;;;2317623;54;21485;-71
2021/01/08 05:24:02;;;;;;;13.50;6.80;;;5.00;70.30;;;;;;2580701;53;21811;-71
2021/01/08 05:26:28;;;;;;;14.10;6.93;;;5.00;70.30;;;;;;2334211;53;20951;-72
2021/01/08 05:28:59;;;;;;;15.50;6.85;;;5.00;70.40;;;;;;2334904;54;20963;-71
2021/01/08 05:31:30;;;;;;;13.98;7.10;;;5.00;70.50;;;;;;2580437;53;20901;-71
2021/01/08 05:33:58;;;;;;;14.98;7.07;;;5.00;70.60;;;;;;2560476;52;21013;-71
2021/01/08 05:36:25;;;;;;;14.93;8.23;;;5.00;70.50;;;;;;2323883;53;21038;-72
2021/01/08 05:38:57;;;;;;;14.57;7.40;;;5.00;70.50;;;;;;2326377;53;20952;-71
2021/01/08 05:41:27;;;;;;;14.45;7.72;;;5.00;70.50;;;;;;2579752;53;20981;-71
2021/01/08 05:43:53;;;;;;;14.20;7.25;;;5.00;70.60;;;;;;2577252;53;20928;-71
2021/01/08 05:46:37;;;;;;;14.32;7.57;;;5.00;70.60;;;;;;2336954;53;20956;-72
2021/01/08 05:49:05;;;;;;;15.38;7.57;;;5.00;70.60;;;;;;2580345;53;20981;-71
2021/01/08 05:51:32;;;;;;;13.45;6.95;;;5.00;70.70;;;;;;2572795;52;22121;-71
2021/01/08 05:53:59;;;;;;;16.35;8.25;;;4.90;70.60;;;;;;2338300;53;20961;-71
2021/01/08 05:56:26;;;;;;;15.98;8.27;;;4.90;70.50;;;;;;2335614;53;20956;-71
2021/01/08 05:58:53;;;;;;;15.60;7.75;;;4.90;70.50;;;;;;2339149;53;21079;-71
2021/01/08 06:01:20;;;;;;;15.20;8.00;;;4.90;70.50;;;;;;2576244;53;20961;-71
2021/01/08 06:03:46;;;;;;;16.42;8.25;;;4.90;70.50;;;;;;2327077;53;20957;-71
2021/01/08 06:06:16;;;;;;;19.27;9.18;;;4.90;70.50;;;;;;2329481;53;20948;-72
2021/01/08 06:08:49;;;;;;;26.60;11.30;;;4.80;70.30;;;;;;2334332;54;21472;-72
2021/01/08 06:11:20;;;;;;;21.25;10.38;;;4.80;70.20;;;;;;2338206;54;20996;-71
2021/01/08 06:13:53;;;;;;;22.45;13.13;;;4.80;70.30;;;;;;2333460;53;20956;-72
2021/01/08 06:16:20;;;;;;;21.30;11.60;;;4.80;70.30;;;;;;2334220;54;21816;-72
2021/01/08 06:18:55;;;;;;;17.10;9.30;;;4.80;70.30;;;;;;2338422;53;20988;-71
2021/01/08 06:21:34;;;;;;;16.37;8.18;;;4.80;70.20;;;;;;2328847;53;21435;-72
2021/01/08 06:24:00;;;;;;;14.30;7.65;;;4.80;70.20;;;;;;2562403;52;21100;-71
2021/01/08 06:26:27;;;;;;;15.85;7.47;;;4.80;70.40;;;;;;2331595;53;21695;-71
2021/01/08 06:28:53;;;;;;;17.90;8.15;;;4.70;70.30;;;;;;2334781;53;20905;-72
2021/01/08 06:31:30;;;;;;;15.52;7.65;;;4.80;70.40;;;;;;2340256;53;20946;-72
2021/01/08 06:34:00;;;;;;;19.45;10.15;;;4.70;70.40;;;;;;2576478;53;21027;-71
2021/01/08 06:36:31;;;;;;;23.40;12.52;;;4.80;70.60;;;;;;2339338;53;21462;-71
2021/01/08 06:39:01;;;;;;;22.23;11.35;;;4.80;70.60;;;;;;2581428;53;21004;-72
2021/01/08 06:41:28;;;;;;;18.33;9.82;;;4.70;70.60;;;;;;2340713;53;21004;-72
2021/01/08 06:43:58;;;;;;;17.62;8.90;;;4.70;70.60;;;;;;2327665;53;20967;-71
2021/01/08 06:46:35;;;;;;;23.17;10.90;;;4.80;70.80;;;;;;2576894;52;20953;-72
2021/01/08 06:49:52;;;;;;;22.55;10.63;;;4.80;70.90;;;;;;2336732;54;20945;-72
2021/01/08 06:52:34;;;;;;;19.23;9.52;;;4.80;70.50;;;;;;2336597;54;20977;-72
2021/01/08 06:55:00;;;;;;;15.80;8.82;;;4.80;70.70;;;;;;2336366;54;20927;-71
2021/01/08 06:57:26;;;;;;;17.02;8.63;;;4.80;70.80;;;;;;2340165;53;20941;-72
2021/01/08 06:59:57;;;;;;;16.50;8.27;;;4.80;70.80;;;;;;2336439;53;20937;-72
2021/01/08 07:02:23;;;;;;;17.05;7.53;;;4.80;70.80;;;;;;2582805;52;21038;-72
2021/01/08 07:04:50;;;;;;;14.48;7.55;;;4.80;70.80;;;;;;2568204;52;21386;-72
2021/01/08 07:07:25;;;;;;;14.68;7.50;;;4.80;70.80;;;;;;2340133;53;20969;-72
2021/01/08 07:09:52;;;;;;;13.45;6.75;;;4.80;70.90;;;;;;2341069;53;20971;-72
2021/01/08 07:12:22;;;;;;;15.50;8.10;;;4.80;71.00;;;;;;2335107;53;20946;-72
2021/01/08 07:14:49;;;;;;;15.10;7.68;;;4.80;70.90;;;;;;2337292;53;20952;-71
2021/01/08 07:17:15;;;;;;;16.48;7.57;;;4.80;70.90;;;;;;2581389;53;20949;-71
2021/01/08 07:19:43;;;;;;;13.45;6.85;;;4.80;71.00;;;;;;2335081;53;20936;-71
2021/01/08 07:22:17;;;;;;;13.68;6.68;;;4.80;71.10;;;;;;2578758;53;20977;-71
2021/01/08 07:24:44;;;;;;;16.75;8.07;;;4.80;71.10;;;;;;2333298;53;20947;-71
2021/01/08 07:27:26;;;;;;;19.15;7.60;;;4.80;71.10;;;;;;2578695;53;20952;-71
2021/01/08 07:29:53;;;;;;;17.43;7.37;;;4.80;71.10;;;;;;2579534;53;20940;-69
2021/01/08 07:32:51;;;;;;;17.98;7.18;;;4.80;71.20;;;;;;2337667;53;21679;-70
2021/01/08 07:35:30;;;;;;;16.30;7.65;;;4.90;71.20;;;;;;2578725;53;20924;-70
2021/01/08 07:38:16;;;;;;;15.60;7.12;;;4.90;71.10;;;;;;2578625;53;20933;-70
2021/01/08 07:41:34;;;;;;;25.80;10.60;;;4.90;70.90;;;;;;2338335;53;21028;-72
2021/01/08 07:44:01;;;;;;;27.27;9.93;;;4.90;70.70;;;;;;2340018;53;20961;-71
2021/01/08 07:46:33;;;;;;;24.42;9.63;;;4.90;70.90;;;;;;2323440;53;21505;-71
2021/01/08 07:49:01;;;;;;;26.70;9.98;;;4.90;71.00;;;;;;2341803;53;21021;-71
2021/01/08 07:51:46;;;;;;;20.90;8.68;;;4.90;71.10;;;;;;2577215;53;20991;-71
2021/01/08 07:54:13;;;;;;;20.75;9.48;;;5.00;71.10;;;;;;2580403;53;20978;-70
2021/01/08 07:57:04;;;;;;;28.75;11.55;;;5.00;71.30;;;;;;2334595;54;21753;-70
2021/01/08 07:59:30;;;;;;;26.75;12.02;;;5.00;71.10;;;;;;2336928;53;21410;-70
2021/01/08 08:01:57;;;;;;;25.12;10.98;;;5.00;71.30;;;;;;2338267;53;21009;-70
2021/01/08 08:04:26;;;;;;;22.62;10.45;;;5.10;71.30;;;;;;2579251;53;20992;-71
2021/01/08 08:06:52;;;;;;;21.87;10.32;;;5.10;71.30;;;;;;2346048;53;21000;-72
2021/01/08 08:09:21;;;;;;;27.42;12.02;;;5.10;71.20;;;;;;2328985;53;20916;-71
2021/01/08 08:11:47;;;;;;;23.75;10.50;;;5.10;71.20;;;;;;2333647;54;21009;-71
2021/01/08 08:14:17;;;;;;;23.60;10.60;;;5.10;71.10;;;;;;2333622;53;21418;-70
2021/01/08 08:16:45;;;;;;;20.70;9.77;;;5.10;71.10;;;;;;2336911;53;20974;-71
2021/01/08 08:19:12;;;;;;;19.33;9.23;;;5.10;70.90;;;;;;2332410;53;21550;-71
2021/01/08 08:21:45;;;;;;;16.40;8.38;;;5.10;70.90;;;;;;2336798;53;20992;-71
2021/01/08 08:24:14;;;;;;;;;;;5.10;70.90;;;;;;2577676;53;21032;-71
2021/01/08 08:26:41;;;;;;;17.00;8.32;;;5.10;70.10;;;;;;2571482;52;20067;-71
2021/01/08 08:29:09;;;;;;;19.27;10.48;;;5.10;70.80;;;;;;2338481;53;20937;-71
2021/01/08 08:31:38;;;;;;;16.08;9.05;;;5.10;70.90;;;;;;2331882;53;20956;-72
2021/01/08 08:34:06;;;;;;;15.60;8.23;;;5.10;71.00;;;;;;2342518;53;21576;-71
2021/01/08 08:36:35;;;;;;;13.68;7.05;;;5.10;71.00;;;;;;2320666;53;20968;-71
2021/01/08 08:39:10;;;;;;;14.63;6.87;;;5.20;71.00;;;;;;2576266;53;20933;-71
2021/01/08 08:41:41;;;;;;;15.20;6.78;;;5.20;71.00;;;;;;2576109;53;21012;-72
2021/01/08 08:44:17;;;;;;;13.18;6.65;;;5.20;71.00;;;;;;2574068;53;20928;-71
2021/01/08 08:46:59;;;;;;;10.43;5.75;;;5.20;71.00;;;;;;2331353;54;21051;-72
2021/01/08 08:49:30;;;;;;;11.55;5.82;;;5.20;71.10;;;;;;2340521;53;21033;-71
2021/01/08 08:51:56;;;;;;;13.05;6.18;;;5.20;71.20;;;;;;2319275;53;20991;-71
2021/01/08 08:54:24;;;;;;;13.60;6.65;;;5.20;71.20;;;;;;2338490;53;20917;-71
2021/01/08 08:57:02;;;;;;;12.88;6.47;;;5.30;71.30;;;;;;2342373;53;21004;-71
2021/01/08 09:01:20;;;;;;;12.35;6.30;;;5.30;71.10;;;;;;2330163;53;20965;-72
2021/01/08 09:04:06;;;;;;;13.48;6.15;;;5.30;70.30;;;;;;2583108;53;20925;-72
2021/01/08 09:06:35;;;;;;;12.32;6.35;;;5.30;70.80;;;;;;2583364;53;20961;-72
2021/01/08 09:09:09;;;;;;;14.68;6.43;;;5.30;71.00;;;;;;2338266;53;20972;-71
2021/01/08 09:11:38;;;;;;;13.82;6.90;;;5.40;71.10;;;;;;2341828;54;21027;-71
2021/01/08 09:14:12;;;;;;;12.43;6.72;;;5.40;71.20;;;;;;2317754;55;20969;-71
2021/01/08 09:16:52;;;;;;;11.75;6.25;;;5.40;71.20;;;;;;2337901;54;20972;-71
2021/01/08 09:20:22;;;;;;;11.93;5.83;;;5.40;71.00;;;;;;2342247;53;21024;-72
2021/01/08 09:22:48;;;;;;;11.05;6.12;;;5.50;70.80;;;;;;2328737;54;20917;-71
2021/01/08 09:25:15;;;;;;;13.45;6.15;;;5.50;71.50;;;;;;2329918;53;20913;-72
2021/01/08 09:27:44;;;;;;;20.05;9.10;;;5.50;71.50;;;;;;2331027;53;20945;-72
2021/01/08 09:30:12;;;;;;;18.35;8.93;;;5.60;71.50;;;;;;2570589;53;20948;-71
2021/01/08 09:32:38;;;;;;;15.55;7.12;;;5.60;71.40;;;;;;2556069;53;20972;-71
2021/01/08 09:35:08;;;;;;;14.25;6.55;;;5.60;71.40;;;;;;2309956;54;22744;-72
2021/01/08 09:37:51;;;;;;;12.63;6.40;;;5.60;71.20;;;;;;2298663;53;22216;-71
2021/01/08 09:40:20;;;;;;;10.63;5.22;;;5.60;71.10;;;;;;2505901;53;21954;-69
2021/01/08 09:42:49;;;;;;;11.20;5.45;;;5.70;71.30;;;;;;2278028;53;22513;-69
2021/01/08 09:45:28;;;;;;;12.05;5.95;;;5.70;71.40;;;;;;2474177;52;21685;-70
2021/01/08 09:47:58;;;;;;;12.43;5.75;;;5.80;71.30;;;;;;2268521;53;21377;-70
2021/01/08 09:50:29;;;;;;;11.60;6.05;;;5.80;71.50;;;;;;2557750;52;21478;-71
2021/01/08 09:52:57;;;;;;;13.40;7.20;;;5.80;71.50;;;;;;2336122;53;21035;-70
2021/01/08 09:55:25;;;;;;;13.90;6.87;;;5.90;71.60;;;;;;2335514;54;21991;-70
2021/01/08 09:57:58;;;;;;;14.98;6.80;;;5.90;71.50;;;;;;2580643;53;21039;-71
2021/01/08 10:00:33;;;;;;;12.65;6.72;;;5.90;71.50;;;;;;2581206;53;21675;-71
2021/01/08 10:03:00;;;;;;;13.32;6.30;;;5.90;71.50;;;;;;2579298;53;21585;-72
2021/01/08 10:05:35;;;;;;;13.30;6.28;;;6.00;71.80;;;;;;2581201;53;20983;-72
2021/01/08 10:08:03;;;;;;;11.43;6.50;;;6.10;72.00;;;;;;2339029;53;20989;-70
2021/01/08 10:10:40;;;;;;;11.65;6.45;;;6.10;71.80;;;;;;2340544;53;21056;-72
2021/01/08 10:13:16;;;;;;;13.45;6.80;;;6.20;71.70;;;;;;2343600;53;20949;-71
2021/01/08 10:15:48;;;;;;;12.15;6.05;;;6.20;71.50;;;;;;2311136;54;21004;-72
2021/01/08 10:18:27;;;;;;;11.63;6.32;;;6.20;71.60;;;;;;2340693;53;21009;-72
2021/01/08 10:21:05;;;;;;;12.90;6.20;;;6.30;71.50;;;;;;2339922;53;20985;-72
2021/01/08 10:23:41;;;;;;;12.68;6.53;;;6.30;71.50;;;;;;2332194;53;20951;-72
2021/01/08 10:26:14;;;;;;;10.07;5.75;;;6.40;71.90;;;;;;2570354;52;21015;-72
2021/01/08 10:28:53;;;;;;;12.30;5.85;;;6.50;72.40;;;;;;2580058;52;20956;-72
2021/01/08 10:31:22;;;;;;;11.98;6.20;;;6.60;72.50;;;;;;2580757;53;21024;-73
2021/01/08 10:33:48;;;;;;;11.98;6.35;;;6.60;72.90;;;;;;2337064;53;20968;-72
2021/01/08 10:36:16;;;;;;;11.93;5.45;;;6.70;72.90;;;;;;2580099;53;21067;-72
2021/01/08 10:38:42;;;;;;;9.02;4.70;;;6.80;72.70;;;;;;2337317;53;21649;-72
2021/01/08 10:41:09;;;;;;;9.90;4.32;;;6.90;73.00;;;;;;2566254;52;21840;-72
2021/01/08 10:43:37;;;;;;;10.73;5.85;;;7.00;73.30;;;;;;2342464;53;20977;-72
2021/01/08 10:46:03;;;;;;;10.57;5.87;;;7.10;73.10;;;;;;2573426;52;21744;-73
2021/01/08 10:48:31;;;;;;;10.82;5.80;;;7.10;72.80;;;;;;2336298;54;21835;-72
2021/01/08 10:50:59;;;;;;;9.48;5.07;;;7.20;72.80;;;;;;2582140;53;20949;-72
2021/01/08 10:53:27;;;;;;;11.90;6.28;;;7.30;73.30;;;;;;2337246;53;20936;-72
2021/01/08 10:55:53;;;;;;;11.32;6.37;;;7.40;75.10;;;;;;2344630;53;21025;-71
2021/01/08 10:58:19;;;;;;;10.82;5.82;;;7.60;76.30;;;;;;2575413;52;21506;-71
2021/01/08 11:00:46;;;;;;;11.18;6.43;;;7.90;77.90;;;;;;2337508;53;21017;-71
2021/01/08 11:03:13;;;;;;;10.82;5.95;;;8.30;79.90;;;;;;2338923;53;21012;-71
2021/01/08 11:05:50;;;;;;;10.60;6.12;;;8.70;81.10;;;;;;2581877;53;22212;-71
2021/01/08 11:08:18;;;;;;;11.50;6.15;;;9.10;81.10;;;;;;2304230;53;20986;-71
2021/01/08 11:10:44;;;;;;;8.75;5.53;;;9.60;81.20;;;;;;2581532;53;21736;-72
2021/01/08 11:13:12;;;;;;;13.07;6.40;;;9.90;80.00;;;;;;2338571;54;21580;-71
2021/01/08 11:15:39;;;;;;;9.15;5.47;;;10.30;78.10;;;;;;2338198;53;20908;-72
2021/01/08 11:18:07;;;;;;;8.85;5.25;;;10.50;76.50;;;;;;2583819;53;20976;-71
2021/01/08 11:20:33;;;;;;;9.27;4.93;;;10.70;74.10;;;;;;2572774;53;20963;-71
2021/01/08 11:23:04;;;;;;;8.82;5.32;;;10.80;72.40;;;;;;2563102;52;20921;-71
2021/01/08 11:25:30;;;;;;;9.20;5.20;;;10.80;70.30;;;;;;2582996;53;20957;-72
2021/01/08 11:27:56;;;;;;;7.55;4.68;;;10.80;69.50;;;;;;2569170;52;21428;-71
2021/01/08 11:30:24;;;;;;;8.93;4.70;;;10.80;69.20;;;;;;2547646;53;21048;-72
2021/01/08 11:32:50;;;;;;;9.65;6.07;;;10.70;69.20;;;;;;2329627;53;20904;-71
2021/01/08 11:35:17;;;;;;;7.75;5.15;;;10.70;69.30;;;;;;2579352;53;20961;-71
2021/01/08 11:37:43;;;;;;;8.05;4.50;;;10.60;69.30;;;;;;2333001;53;20983;-71
2021/01/08 11:40:11;;;;;;;6.45;3.85;;;10.70;69.30;;;;;;2335888;54;20941;-71
2021/01/08 11:42:37;;;;;;;7.62;3.95;;;10.60;68.90;;;;;;2338905;53;21898;-71
2021/01/08 11:45:07;;;;;;;6.03;3.12;;;10.50;68.70;;;;;;2580133;53;20936;-73
2021/01/08 11:47:36;;;;;;;6.12;3.33;;;10.50;68.40;;;;;;2579839;53;20909;-71
2021/01/08 11:50:04;;;;;;;6.32;2.97;;;10.40;67.40;;;;;;2339400;54;21021;-71
2021/01/08 11:52:30;;;;;;;5.80;3.35;;;10.30;67.30;;;;;;2332703;53;20909;-70
2021/01/08 11:58:37;;;;;;;6.10;3.25;;;10.10;65.90;;;;;;2576070;53;20932;-71
2021/01/08 12:01:04;;;;;;;6.32;3.40;;;10.10;68.20;;;;;;2576261;53;20945;-71
2021/01/08 12:03:34;;;;;;;5.87;3.10;;;10.00;68.60;;;;;;2575867;53;20928;-71
2021/01/08 12:06:00;;;;;;;6.40;3.30;;;10.10;69.00;;;;;;2548169;53;20945;-71
2021/01/08 12:08:27;;;;;;;5.62;3.35;;;10.10;68.70;;;;;;2577019;53;20965;-70
2021/01/08 12:10:55;;;;;;;6.18;3.40;;;10.10;68.00;;;;;;2556497;52;20921;-70
2021/01/08 12:13:22;;;;;;;8.15;3.25;;;10.00;67.10;;;;;;2575028;53;20945;-71
2021/01/08 12:15:49;;;;;;;6.32;3.60;;;9.90;67.70;;;;;;2576692;53;20951;-70
2021/01/08 12:18:15;;;;;;;6.72;3.53;;;9.90;67.70;;;;;;2575861;53;21476;-71
2021/01/08 12:20:47;;;;;;;8.43;3.40;;;9.80;68.20;;;;;;2335988;53;20996;-71
2021/01/08 12:23:14;;;;;;;6.25;3.25;;;9.80;69.30;;;;;;2335102;53;21571;-71
2021/01/08 12:25:40;;;;;;;6.22;3.10;;;9.80;70.20;;;;;;2334937;53;20932;-71
2021/01/08 12:28:07;;;;;;;5.32;2.90;;;9.90;70.20;;;;;;2333378;54;21129;-70
2021/01/08 12:30:42;;;;;;;6.90;3.15;;;10.00;69.10;;;;;;2320800;54;20960;-71
2021/01/08 12:33:09;;;;;;;4.95;2.50;;;10.00;68.10;;;;;;2579142;52;20953;-71
2021/01/08 12:35:48;;;;;;;4.25;2.28;;;10.00;67.60;;;;;;2568130;52;21505;-71
2021/01/08 12:38:15;;;;;;;4.87;2.20;;;10.00;66.40;;;;;;2576190;53;20932;-71
2021/01/08 12:40:41;;;;;;;5.05;2.53;;;10.00;67.10;;;;;;2581601;53;21338;-71
2021/01/08 12:43:17;;;;;;;4.35;2.20;;;10.00;67.40;;;;;;2580909;53;20948;-70
2021/01/08 12:45:43;;;;;;;3.53;1.90;;;10.00;67.40;;;;;;2581034;53;20944;-71
2021/01/08 12:48:11;;;;;;;3.37;1.90;;;9.90;67.80;;;;;;2337275;53;21952;-71
2021/01/08 12:50:38;;;;;;;4.15;2.03;;;9.90;67.10;;;;;;2580908;53;20952;-70
2021/01/08 12:53:04;;;;;;;5.65;2.58;;;9.80;66.50;;;;;;2316539;55;20995;-71
2021/01/08 12:55:30;;;;;;;4.43;2.25;;;9.70;66.40;;;;;;2340065;53;20949;-70
2021/01/08 12:57:57;;;;;;;5.10;2.22;;;9.60;66.40;;;;;;2335489;53;21028;-71
2021/01/08 13:00:23;;;;;;;4.50;2.30;;;9.50;66.50;;;;;;2340653;53;20988;-71
2021/01/08 13:02:50;;;;;;;6.18;2.75;;;9.50;66.90;;;;;;2572882;52;20956;-71
2021/01/08 13:05:16;;;;;;;5.18;2.33;;;9.40;66.80;;;;;;2577330;53;20963;-70
2021/01/08 13:07:43;;;;;;;4.18;2.15;;;9.30;66.40;;;;;;2579133;53;20973;-70
2021/01/08 13:10:10;;;;;;;4.25;2.15;;;9.20;66.10;;;;;;2336391;54;20964;-71
2021/01/08 13:12:52;;;;;;;4.78;1.75;;;9.10;66.10;;;;;;2581580;53;20968;-70